Time;durP1;ratioP1;P1;durP2;ratioP2;P2;SDS_P1;SDS_P2;PMS_P1;PMS_P2;Temp;Humidity;BMP_temperature;BMP_pressure;BME280_temperature;BME280_humidity;BME280_pressure;Samples;Min_cycle;Max_cycle;Signal;HPM_P1;HPM_P2
2021/11/15 00:18:33;;;;;;;102.30;45.70;;;;;;;3.60;83.60;99729.16;422185;1307;109088;-41
2021/11/15 00:28:40;;;;;;;64.80;32.40;;;;;;;3.57;83.49;99739.25;422631;1307;97951;-39
2021/11/15 00:38:49;;;;;;;58.60;32.10;;;;;;;3.56;83.65;99741.38;422148;1309;108725;-41
2021/11/15 00:48:56;;;;;;;60.20;32.20;;;;;;;3.59;83.69;99752.77;422529;1309;97636;-42
2021/11/15 00:59:03;;;;;;;85.50;39.30;;;;;;;3.59;83.84;99748.77;422078;1309;110819;-41
2021/11/15 01:09:11;;;;;;;81.30;32.70;;;;;;;3.55;83.89;99755.50;422437;1309;108892;-41
2021/11/15 01:19:18;;;;;;;73.70;32.50;;;;;;;3.56;83.72;99763.20;418096;1309;5732281;-40
2021/11/15 01:29:26;;;;;;;69.20;31.60;;;;;;;3.58;83.83;99772.40;422574;1308;108914;-41
2021/11/15 01:39:33;;;;;;;69.10;29.60;;;;;;;3.66;83.81;99775.54;422261;1309;97840;-40
2021/11/15 01:49:41;;;;;;;95.70;41.00;;;;;;;3.64;83.99;99777.56;422363;1309;108900;-40
2021/11/15 01:59:49;;;;;;;72.20;31.10;;;;;;;3.61;83.94;99778.56;422123;1309;98662;-41
2021/11/15 02:09:57;;;;;;;75.80;33.30;;;;;;;3.66;83.84;99775.23;422215;1309;111274;-43
2021/11/15 02:20:05;;;;;;;69.10;30.10;;;;;;;3.67;83.91;99777.23;422908;1295;108873;-40
2021/11/15 02:30:17;;;;;;;77.80;32.70;;;;;;;3.71;84.02;99774.20;422520;1307;97583;-41
2021/11/15 02:40:26;;;;;;;89.40;35.40;;;;;;;3.70;84.23;99772.54;422287;1308;109351;-40
2021/11/15 02:50:33;;;;;;;;;;;;;;;3.67;84.23;99774.20;422558;1308;97930;-41
2021/11/15 03:00:38;;;;;;;80.60;33.20;;;;;;;3.69;84.15;99776.72;422337;1308;111892;-40
2021/11/15 03:10:47;;;;;;;68.90;31.20;;;;;;;3.71;84.33;99779.08;422655;1308;109030;-42
2021/11/15 03:20:56;;;;;;;76.00;30.80;;;;;;;3.78;84.34;99774.95;422207;1308;97974;-40
2021/11/15 03:31:06;;;;;;;83.50;32.00;;;;;;;3.80;84.30;99771.21;422571;1308;107749;-40
2021/11/15 03:41:14;;;;;;;95.70;37.80;;;;;;;3.71;84.47;99768.45;422343;1308;98003;-41
2021/11/15 03:51:22;;;;;;;74.00;32.90;;;;;;;3.65;84.48;99772.33;422174;1308;110070;-43
2021/11/15 04:01:32;;;;;;;73.90;30.20;;;;;;;3.68;84.54;99781.85;422313;1308;107770;-40
2021/11/15 04:11:40;;;;;;;62.20;32.20;;;;;;;3.73;84.74;99779.48;422401;1308;97974;-41
2021/11/15 04:21:50;;;;;;;77.60;30.20;;;;;;;3.77;84.56;99776.61;422460;1308;108921;-40
2021/11/15 04:31:57;;;;;;;74.20;33.20;;;;;;;3.81;84.63;99767.79;422348;1308;97542;-40
2021/11/15 04:42:06;;;;;;;112.90;40.30;;;;;;;3.78;84.87;99763.71;422398;1308;111100;-40
2021/11/15 04:52:13;;;;;;;80.40;34.30;;;;;;;3.81;84.85;99775.50;422177;1308;109149;-40
2021/11/15 05:02:21;;;;;;;70.10;33.50;;;;;;;3.82;84.88;99774.46;422567;1308;97952;-41
2021/11/15 05:12:30;;;;;;;72.40;34.20;;;;;;;3.92;84.75;99778.02;422266;1308;108958;-41
2021/11/15 05:22:36;;;;;;;;;;;;;;;3.94;84.94;99785.48;422535;1308;96765;-41
2021/11/15 05:32:44;;;;;;;75.90;33.80;;;;;;;3.82;85.12;99788.76;422294;1308;109369;-41
2021/11/15 05:42:52;;;;;;;72.20;32.20;;;;;;;3.83;85.07;99788.23;422282;1308;108989;-41
2021/11/15 05:53:00;;;;;;;68.80;32.00;;;;;;;3.85;85.22;99797.02;422337;1308;97945;-40
2021/11/15 06:03:08;;;;;;;66.00;31.40;;;;;;;3.90;85.32;99800.38;422142;1307;111250;-39
2021/11/15 06:13:16;;;;;;;79.00;36.10;;;;;;;3.92;85.28;99812.55;422215;1306;109377;-39
2021/11/15 06:23:23;;;;;;;74.10;33.80;;;;;;;3.93;85.42;99822.30;422284;1308;97025;-40
2021/11/15 06:33:29;;;;;;;104.20;44.60;;;;;;;3.89;85.69;99829.72;422451;1308;108753;-40
2021/11/15 06:43:37;;;;;;;70.20;36.50;;;;;;;3.87;85.52;99835.23;422340;1308;97942;-40
2021/11/15 06:53:45;;;;;;;70.70;35.10;;;;;;;3.91;85.65;99835.09;422166;1308;111199;-39
2021/11/15 07:03:52;;;;;;;62.20;31.40;;;;;;;4.01;85.73;99840.20;422267;1307;108823;-40
2021/11/15 07:13:59;;;;;;;59.10;31.80;;;;;;;4.06;85.73;99845.48;422317;1307;98592;-40
2021/11/15 07:24:06;;;;;;;95.80;45.30;;;;;;;4.05;85.86;99853.92;422162;1308;108618;-42
2021/11/15 07:34:13;;;;;;;56.90;32.90;;;;;;;4.02;85.77;99853.18;422326;1308;97545;-39
2021/11/15 07:44:20;;;;;;;57.70;29.70;;;;;;;4.04;85.92;99859.62;422190;1307;111016;-40
2021/11/15 07:54:29;;;;;;;53.40;30.70;;;;;;;4.11;86.04;99860.10;422293;1308;108811;-40
2021/11/15 08:04:36;;;;;;;56.60;28.50;;;;;;;4.17;85.94;99860.73;422097;1307;97574;-39
2021/11/15 08:14:44;;;;;;;66.30;32.50;;;;;;;4.16;86.13;99865.19;422405;1308;108902;-41
2021/11/15 08:25:26;;;;;;;41.90;25.00;;;;;;;4.22;85.89;99858.63;422236;1307;97942;-40
2021/11/15 08:35:32;;;;;;;49.60;28.80;;;;;;;4.33;85.85;99864.60;422369;1308;111415;-41
2021/11/15 08:45:40;;;;;;;44.60;24.80;;;;;;;4.36;85.91;99859.40;422008;1307;108771;-40
2021/11/15 08:55:47;;;;;;;63.50;29.50;;;;;;;4.39;86.01;99858.98;422334;1308;97971;-40
2021/11/15 09:05:55;;;;;;;58.60;29.50;;;;;;;4.40;85.96;99857.51;421948;1308;111097;-40
2021/11/15 09:16:03;;;;;;;64.50;30.90;;;;;;;4.47;86.01;99857.02;420165;1307;3035594;-40
2021/11/15 09:26:12;;;;;;;60.70;30.70;;;;;;;4.50;86.03;99858.84;422050;1306;98031;-40
2021/11/15 09:46:31;;;;;;;67.50;33.20;;;;;;;4.52;86.12;99867.83;422229;1308;97957;-39
2021/11/15 10:06:45;;;;;;;61.10;31.60;;;;;;;4.54;86.22;99860.63;422227;1308;108818;-43
2021/11/15 10:16:50;;;;;;;66.50;32.30;;;;;;;4.60;86.36;99850.13;422519;1308;97544;-42
2021/11/15 10:27:02;;;;;;;90.50;42.00;;;;;;;4.60;86.43;99851.49;422308;1307;109242;-40
2021/11/15 10:37:09;;;;;;;67.80;32.90;;;;;;;4.61;86.38;99849.63;422451;1308;97949;-40
2021/11/15 10:47:19;;;;;;;69.50;35.20;;;;;;;4.66;86.48;99850.71;422312;1307;111003;-39
2021/11/15 10:57:31;;;;;;;63.50;31.90;;;;;;;4.75;86.50;99841.77;422403;1308;108848;-39
2021/11/15 11:07:39;;;;;;;65.10;31.40;;;;;;;4.80;86.53;99840.98;422471;1309;97664;-40
2021/11/15 11:28:25;;;;;;;99.90;39.10;;;;;;;4.92;86.54;99843.23;422382;1308;97936;-40
2021/11/15 11:38:31;;;;;;;80.60;35.40;;;;;;;4.96;86.27;99838.08;421980;1308;111279;-40
2021/11/15 11:48:39;;;;;;;67.30;33.10;;;;;;;5.04;86.49;99825.71;422202;1308;107438;-42
2021/11/15 11:58:50;;;;;;;109.10;45.00;;;;;;;5.18;86.42;99818.69;422639;1307;97590;-39
2021/11/15 12:08:54;;;;;;;95.10;42.10;;;;;;;5.15;86.45;99815.92;422362;1308;108900;-40
2021/11/15 12:19:02;;;;;;;94.90;38.50;;;;;;;5.20;86.15;99810.13;422335;1308;97965;-39
2021/11/15 12:29:16;;;;;;;91.30;42.40;;;;;;;5.27;86.12;99812.19;422543;1308;111099;-40
2021/11/15 12:39:26;;;;;;;120.60;54.80;;;;;;;5.31;86.06;99809.95;422644;1308;108788;-41
2021/11/15 12:49:36;;;;;;;93.70;43.40;;;;;;;5.30;86.15;99808.64;422211;1308;97982;-41
2021/11/15 12:59:44;;;;;;;88.50;38.90;;;;;;;5.39;85.88;99801.77;422220;1308;109690;-40
2021/11/15 13:09:53;;;;;;;69.80;36.20;;;;;;;5.43;85.80;99794.97;422056;1314;97532;-40
2021/11/15 13:30:09;;;;;;;85.40;37.00;;;;;;;5.57;85.62;99791.52;422319;1307;108928;-41
2021/11/15 13:40:16;;;;;;;76.20;32.20;;;;;;;5.53;85.49;99792.52;422349;1308;97941;-41
2021/11/15 13:50:24;;;;;;;75.20;36.30;;;;;;;5.57;85.41;99788.92;422191;1309;108975;-41
2021/11/15 14:00:30;;;;;;;73.70;33.30;;;;;;;5.59;85.30;99805.55;422241;1313;97855;-40
2021/11/15 14:10:39;;;;;;;82.40;37.80;;;;;;;5.60;85.28;99809.41;422114;1311;111157;-40
2021/11/15 14:20:46;;;;;;;115.50;47.40;;;;;;;5.58;85.26;99806.51;422467;1310;108869;-40
2021/11/15 14:30:54;;;;;;;82.60;35.00;;;;;;;5.50;85.09;99812.23;422560;1310;98192;-41
2021/11/15 14:51:08;;;;;;;99.50;43.10;;;;;;;5.50;85.04;99814.20;422656;1304;97986;-40
2021/11/15 15:01:16;;;;;;;93.00;40.20;;;;;;;5.53;85.07;99819.09;422670;1310;111733;-40
2021/11/15 15:11:23;;;;;;;115.10;51.30;;;;;;;5.49;85.01;99825.10;422527;1304;108790;-40
2021/11/15 15:21:31;;;;;;;107.60;46.40;;;;;;;5.44;84.92;99826.54;422626;1310;98115;-40
2021/11/15 15:51:54;;;;;;;99.40;40.50;;;;;;;5.55;84.79;99835.27;422803;1310;111380;-39
2021/11/15 16:02:01;;;;;;;77.60;39.40;;;;;;;5.58;84.65;99843.20;422510;1310;108856;-40
2021/11/15 16:22:39;;;;;;;92.60;42.70;;;;;;;5.53;84.73;99839.71;422993;1310;109015;-40
2021/11/15 16:32:47;;;;;;;86.00;37.60;;;;;;;5.52;84.43;99827.58;422525;1310;98557;-41
2021/11/15 16:43:15;;;;;;;80.20;37.50;;;;;;;5.53;84.45;99824.27;422731;1304;111116;-41
2021/11/15 16:53:23;;;;;;;62.60;34.20;;;;;;;5.59;84.42;99828.08;422419;1303;109010;-41
2021/11/15 17:03:33;;;;;;;95.20;45.50;;;;;;;5.62;84.35;99824.00;422555;1303;97868;-41
2021/11/15 17:13:48;;;;;;;71.70;37.20;;;;;;;5.63;84.40;99823.44;418680;1310;5631088;-40
2021/11/15 17:23:59;;;;;;;76.50;38.30;;;;;;;5.68;84.11;99830.88;422853;1304;97989;-40
2021/11/15 17:34:16;;;;;;;66.70;35.00;;;;;;;5.76;84.19;99836.80;422827;1303;110929;-40
2021/11/15 17:44:23;;;;;;;86.20;42.60;;;;;;;5.82;84.03;99832.83;422676;1304;108804;-40
2021/11/15 17:54:38;;;;;;;90.10;46.30;;;;;;;5.78;84.17;99826.16;422965;1303;97932;-42
2021/11/15 18:04:46;;;;;;;75.10;38.90;;;;;;;5.81;83.98;99818.20;422572;1303;111891;-41
2021/11/15 18:14:54;;;;;;;67.80;34.10;;;;;;;5.87;83.95;99822.84;422843;1303;109674;-42
2021/11/15 18:25:05;;;;;;;85.50;41.10;;;;;;;5.95;83.95;99819.86;422575;1304;97552;-40
2021/11/15 18:35:12;;;;;;;83.70;45.90;;;;;;;5.97;83.93;99816.18;422779;1304;108910;-40
2021/11/15 18:45:22;;;;;;;96.30;45.50;;;;;;;5.88;83.73;99817.30;422627;1303;97855;-40
2021/11/15 18:55:29;;;;;;;72.50;39.70;;;;;;;5.88;83.68;99809.80;422546;1304;111233;-40
2021/11/15 19:05:37;;;;;;;68.10;34.80;;;;;;;5.92;83.61;99810.65;422550;1304;108812;-41
2021/11/15 19:15:46;;;;;;;73.40;39.30;;;;;;;5.92;83.62;99806.56;422723;1303;97780;-41
2021/11/15 19:36:01;;;;;;;108.60;49.80;;;;;;;5.83;83.59;99800.02;422628;1303;98022;-40
2021/11/15 19:46:15;;;;;;;79.70;38.60;;;;;;;5.80;83.60;99809.64;422522;1304;110283;-41
2021/11/15 19:56:21;;;;;;;75.30;40.10;;;;;;;5.78;83.64;99812.44;422666;1303;107720;-40
2021/11/15 20:16:40;;;;;;;77.00;40.80;;;;;;;5.74;83.59;99815.91;422564;1303;108855;-41
2021/11/15 20:27:04;;;;;;;64.20;31.60;;;;;;;5.59;83.31;99818.40;422393;1303;98204;-42
2021/11/15 20:37:11;;;;;;;52.00;29.60;;;;;;;5.48;83.08;99816.35;422597;1303;110161;-40
2021/11/15 20:47:26;;;;;;;53.30;29.80;;;;;;;5.37;83.04;99810.85;422731;1303;108804;-41
2021/11/15 20:57:33;;;;;;;54.10;28.40;;;;;;;5.33;82.99;99806.96;422658;1303;97552;-41
2021/11/15 21:07:40;;;;;;;71.10;35.00;;;;;;;5.22;82.91;99799.41;422446;1303;108894;-41
2021/11/15 21:17:48;;;;;;;63.70;32.20;;;;;;;5.11;83.01;99797.81;422766;1303;97955;-41
2021/11/15 21:27:56;;;;;;;54.30;27.90;;;;;;;5.13;83.01;99785.13;422542;1303;111163;-41
2021/11/15 21:38:03;;;;;;;57.40;30.30;;;;;;;5.11;82.94;99782.05;422710;1303;107652;-41
2021/11/15 21:48:12;;;;;;;63.00;32.70;;;;;;;5.11;83.08;99782.90;422538;1303;97590;-41
2021/11/15 21:58:18;;;;;;;80.80;38.70;;;;;;;5.05;83.21;99782.75;422473;1303;108865;-42
2021/11/15 22:08:29;;;;;;;65.00;31.20;;;;;;;5.01;83.32;99778.70;422738;1303;98616;-41
2021/11/15 22:18:38;;;;;;;69.20;35.50;;;;;;;5.02;83.25;99777.65;422431;1303;111097;-41
2021/11/15 22:28:46;;;;;;;72.20;35.00;;;;;;;5.09;83.25;99771.46;422475;1303;108508;-41
2021/11/15 22:49:01;;;;;;;80.90;40.50;;;;;;;5.12;83.46;99755.40;422603;1303;108790;-41
2021/11/15 22:59:09;;;;;;;82.10;40.30;;;;;;;5.03;83.49;99769.09;422573;1303;98601;-42
2021/11/15 23:09:16;;;;;;;63.70;33.70;;;;;;;5.03;83.41;99774.20;422849;1303;110913;-41
2021/11/15 23:19:23;;;;;;;61.60;33.10;;;;;;;5.06;83.39;99770.63;422458;1303;109133;-41
2021/11/15 23:29:31;;;;;;;62.60;34.80;;;;;;;5.08;83.43;99758.23;422702;1303;97574;-40
2021/11/15 23:39:38;;;;;;;84.70;41.60;;;;;;;5.03;83.58;99755.24;422684;1307;108872;-41
2021/11/15 23:49:49;;;;;;;93.20;41.90;;;;;;;4.94;83.51;99748.22;422681;1303;97949;-41
2021/11/15 23:59:57;;;;;;;62.40;33.10;;;;;;;4.95;83.50;99749.08;422744;1304;109789;-41
